Thule Air Base (THU/BGTL)




Flight Aircraft Arriving
CMB7587 B752
KWRI - Joint Base McGuire Dix Lakehurst
United StatesNew Jersey Wrightstown, New Jersey
Flight Aircraft Departing
CMB7586 B752
KWRI - Joint Base McGuire Dix Lakehurst
United StatesNew Jersey Wrightstown, New Jersey
Airport Information
Location: Pituffik, GL
Coordinates: 76.5312 / -68.7032
Elevation:
Time Offset:
Local Time:
UTC Time:
Jet A Price: $/lbs

Current Weather
METAR: BGTL 270956Z AUTO 10008KT 9999 CLR M19/M21 A2907 RMK AO2 SLP835 T11891211 TSNO $
TAF: TAF AMD BGTL 270200Z 2702/2724 11009KT 9999 FEW150 QNH2898INS BECMG 2719/2720 13012G20KT 9999 DRSN FEW020 BKN060 620605 510002 530204 QNH2900INS TEMPO 2720/2724 17020G35KT 1400 -SN BLSN BKN002 OVC010 620029 620921 520002 530204 TXM12/2718Z TNM21/2712Z LAST NO AMDS AFT 2702 NEXT 0110

Recent Arrivals
Date Flight Type Depart
01/04/2019 CMB806 B752 Joint Base McGuire Dix Lakehurst (KWRI)
11/15/2018 CPX806 B752 Joint Base McGuire Dix Lakehurst (KWRI)
Recent Departures
Date Flight Type Arrive
01/10/2019 CMB807 B752 Joint Base McGuire Dix Lakehurst (KWRI)
11/16/2018 CPX807 B752 Joint Base McGuire Dix Lakehurst (KWRI)